San Francisco, CA (94128)

2:35 AM PST on December 05, 2016 (GMT -0800)
East Grand Ave | | Change Station

Elev 23 ft 37.65 °N, 122.38 °W | Updated 30 seconds ago

Scattered Clouds
Scattered Clouds
51.6 °F
Feels Like 51.6 °F
N
1.0
Wind Variable Wind from SSE
Gusts 1.0 mph

Today
High -- | Low -- °F
--% Chance of Precip.
Yesterday
High -- | Low -- °F
Precip. -- in
Pressure 30.11 in
Visibility 10.0 miles
Clouds Few 500 ft
Scattered Clouds 700 ft
Dew Point 50 °F
Humidity 93%
Rainfall 0.00 in
Snow Depth Not available.
7:10 AM 4:50 PM
Waxing Crescent, 30% visible
METAR KSFO 050956Z 28010KT 10SM FEW005 SCT007 12/10 A3011 RMK AO2 SLP196 T01170100 $
Pressure 30.11 in
Visibility 10.0 miles
Clouds Few 500 ft
Scattered Clouds 700 ft
Dew Point 50 °F
Humidity 93%
Rainfall 0.00 in
Snow Depth Not available.
7:10 AM 4:50 PM
Waxing Crescent, 30% visible
METAR KSFO 050956Z 28010KT 10SM FEW005 SCT007 12/10 A3011 RMK AO2 SLP196 T01170100 $

10-Day Weather Forecast

Almanac

Astronomy

Dec. 05, 2016 Rise Set
Actual Time
Civil Twilight
Nautical Twilight
Astronomical Twilight
Moon
Length of Visible Light
Length of Day
Tomorrow will be .
, % of the Moon is Illuminated

Today's Extremes

State Highs State Lows

Community

WunderPhotos

Upload Photos

1,955,777 photos uploaded!

WunderBlog® & News

Nearby

Air Quality

  Air Quality AQ Index Pollutant
Not available.

Snow Depth

Station Depth Elevation

Earthquake Activity

City Distance Mag. Time & Date
Minimum magnitude displayed is 2.5.

Coastal Water Temperatures

Place Temperature

Stations

Nearby Weather Stations

Station Location Temp. Windchill Dew Point Humidity Wind Precip. Elev Updated Type
                   

Watches & Warnings

There are currently no watches in effect.